createdAt,value
2023-02-11T00:01:32.720Z,26.53
2023-02-11T00:04:02.376Z,26.50
2023-02-11T00:06:32.024Z,25.43
2023-02-11T00:09:01.036Z,25.60
2023-02-11T00:11:31.285Z,26.23
2023-02-11T00:14:02.178Z,25.13
2023-02-11T00:16:32.272Z,24.43
2023-02-11T00:19:01.158Z,24.07
2023-02-11T00:21:30.484Z,25.10
2023-02-11T00:23:59.860Z,22.47
2023-02-11T00:26:33.417Z,25.30
2023-02-11T00:29:03.252Z,24.47
2023-02-11T00:31:33.567Z,26.47
2023-02-11T00:34:02.126Z,23.30
2023-02-11T00:36:31.609Z,26.60
2023-02-11T00:39:00.871Z,23.87
2023-02-11T00:41:31.258Z,25.17
2023-02-11T00:44:01.029Z,26.50
2023-02-11T00:46:30.080Z,27.13
2023-02-11T00:48:58.593Z,24.73
2023-02-11T00:51:35.838Z,25.00
2023-02-11T00:54:05.880Z,25.87
2023-02-11T00:56:35.813Z,25.97
2023-02-11T00:59:04.110Z,26.53
2023-02-11T01:01:32.461Z,27.10
2023-02-11T01:04:00.802Z,28.03
2023-02-11T01:06:29.190Z,25.53
2023-02-11T01:08:57.549Z,28.27
2023-02-11T01:11:26.172Z,27.00
2023-02-11T01:13:56.211Z,27.63
2023-02-11T01:16:24.669Z,28.23
2023-02-11T01:18:54.906Z,26.40
2023-02-11T01:21:23.326Z,26.33
2023-02-11T01:23:53.636Z,29.30
2023-02-11T01:26:22.708Z,28.03
2023-02-11T01:28:52.217Z,26.70
2023-02-11T01:31:22.589Z,25.97
2023-02-11T01:33:50.817Z,28.03
2023-02-11T01:36:19.140Z,30.20
2023-02-11T01:38:47.539Z,28.23
2023-02-11T01:41:16.016Z,28.73
2023-02-11T01:43:48.276Z,28.73
2023-02-11T01:46:31.306Z,29.40
2023-02-11T01:49:06.852Z,27.40
2023-02-11T01:51:40.770Z,29.83
2023-02-11T01:54:31.821Z,29.50
2023-02-11T01:57:21.141Z,28.13
2023-02-11T02:00:14.836Z,28.37
2023-02-11T02:02:56.631Z,28.60
2023-02-11T02:05:34.052Z,29.10
2023-02-11T02:08:10.137Z,27.47
2023-02-11T02:10:43.037Z,30.17
2023-02-11T02:13:11.525Z,27.57
2023-02-11T02:15:43.089Z,27.57
2023-02-11T02:18:34.529Z,27.73
2023-02-11T02:21:57.568Z,30.37
2023-02-11T02:25:09.500Z,26.30
2023-02-11T02:27:59.703Z,28.93
2023-02-11T02:31:01.550Z,27.10
2023-02-11T02:33:49.648Z,28.90
2023-02-11T02:36:25.207Z,27.03
2023-02-11T02:39:01.929Z,22.07
2023-02-11T02:41:34.596Z,27.30
2023-02-11T02:44:03.598Z,25.40
2023-02-11T02:46:35.082Z,24.70
2023-02-11T02:49:07.767Z,27.93
2023-02-11T02:52:04.855Z,26.00
2023-02-11T02:55:05.603Z,25.33
2023-02-11T02:57:51.996Z,25.27
2023-02-11T03:00:34.784Z,26.47
2023-02-11T03:03:28.430Z,23.07
2023-02-11T03:06:05.904Z,25.97
2023-02-11T03:08:42.316Z,26.37
2023-02-11T03:11:13.273Z,27.20
2023-02-11T03:13:44.798Z,21.03
2023-02-11T03:16:19.685Z,22.00
2023-02-11T03:18:54.099Z,23.67
2023-02-11T03:21:26.238Z,23.50
2023-02-11T03:23:56.712Z,22.27
2023-02-11T03:26:31.123Z,24.97
2023-02-11T03:29:17.545Z,26.20
2023-02-11T03:31:57.226Z,24.53
2023-02-11T03:34:34.142Z,22.50
2023-02-11T03:37:08.967Z,22.97
2023-02-11T03:39:43.855Z,22.53
2023-02-11T03:42:15.669Z,22.27
2023-02-11T03:44:51.253Z,22.23
2023-02-11T03:51:54.622Z,21.13
2023-02-11T03:54:31.312Z,23.03
2023-02-11T03:57:03.171Z,21.73
2023-02-11T03:59:31.632Z,19.00
2023-02-11T04:02:00.239Z,20.30
2023-02-11T04:04:28.625Z,22.80
2023-02-11T04:07:00.081Z,20.17
2023-02-11T04:09:29.702Z,20.23
2023-02-11T04:11:57.949Z,18.10
2023-02-11T04:14:26.235Z,20.93
2023-02-11T04:16:54.446Z,17.73
2023-02-11T04:19:23.042Z,19.10
2023-02-11T04:21:51.347Z,19.30
2023-02-11T04:24:19.604Z,19.77
2023-02-11T04:26:49.260Z,17.67
2023-02-11T04:29:17.500Z,18.57
2023-02-11T04:31:46.002Z,18.20
2023-02-11T04:34:14.835Z,17.53
2023-02-11T04:36:43.319Z,17.77
2023-02-11T04:39:11.581Z,17.33
2023-02-11T04:41:39.803Z,14.67
2023-02-11T04:44:09.567Z,17.60
2023-02-11T04:46:38.116Z,16.73
2023-02-11T04:49:06.513Z,16.80
2023-02-11T04:51:34.841Z,17.10
2023-02-11T04:54:03.194Z,16.87
2023-02-11T04:56:31.510Z,15.70
2023-02-11T04:58:59.825Z,16.77
2023-02-11T05:01:29.523Z,15.63
2023-02-11T05:03:59.317Z,15.77
2023-02-11T05:06:27.846Z,16.30
2023-02-11T05:08:56.138Z,17.57
2023-02-11T05:11:26.610Z,14.10
2023-02-11T05:13:54.977Z,16.33
2023-02-11T05:16:23.450Z,18.37
2023-02-11T05:18:53.732Z,17.50
2023-02-11T05:21:22.274Z,17.17
2023-02-11T05:23:51.210Z,18.40
2023-02-11T05:26:19.930Z,17.63
2023-02-11T05:28:48.191Z,16.27
2023-02-11T05:31:16.902Z,16.37
2023-02-11T05:33:45.291Z,17.37
2023-02-11T05:36:16.668Z,16.67
2023-02-11T05:38:45.130Z,16.13
2023-02-11T05:41:13.955Z,16.87
2023-02-11T05:43:42.220Z,15.63
2023-02-11T05:46:10.568Z,15.70
2023-02-11T05:48:38.986Z,16.70
2023-02-11T05:51:07.350Z,16.23
2023-02-11T05:53:37.141Z,14.20
2023-02-11T05:56:06.511Z,14.67
2023-02-11T05:58:35.096Z,17.03
2023-02-11T06:01:03.405Z,16.47
2023-02-11T06:03:31.726Z,10.47
2023-02-11T06:05:59.992Z,16.30
2023-02-11T06:08:28.386Z,14.50
2023-02-11T06:10:57.935Z,14.63
2023-02-11T06:13:26.209Z,15.73
2023-02-11T06:15:58.219Z,15.73
2023-02-11T06:18:27.148Z,15.13
2023-02-11T06:20:55.439Z,15.67
2023-02-11T06:23:23.943Z,15.23
2023-02-11T06:25:52.724Z,16.17
2023-02-11T06:28:22.730Z,17.33
2023-02-11T06:30:51.100Z,16.43
2023-02-11T06:33:19.413Z,16.07
2023-02-11T06:35:47.596Z,15.63
2023-02-11T06:38:15.975Z,14.37
2023-02-11T06:40:49.309Z,15.30
2023-02-11T06:43:18.412Z,13.27
2023-02-11T06:45:55.205Z,16.50
2023-02-11T06:48:24.130Z,14.07
2023-02-11T06:50:52.309Z,16.03
2023-02-11T06:53:20.542Z,16.13
2023-02-11T06:55:49.001Z,15.77
2023-02-11T06:58:17.423Z,15.67
2023-02-11T07:00:47.118Z,14.33
2023-02-11T07:03:15.385Z,16.40
2023-02-11T07:05:44.552Z,15.87
2023-02-11T07:08:12.918Z,14.87
2023-02-11T07:10:41.326Z,16.40
2023-02-11T07:13:09.594Z,16.20
2023-02-11T07:15:38.705Z,12.97
2023-02-11T07:18:08.333Z,16.47
2023-02-11T07:20:38.617Z,17.33
2023-02-11T07:23:06.962Z,13.37
2023-02-11T07:25:36.606Z,16.83
2023-02-11T07:28:05.161Z,15.70
2023-02-11T07:30:34.064Z,16.40
2023-02-11T07:33:02.366Z,16.60
2023-02-11T07:35:32.365Z,16.30
2023-02-11T07:38:00.551Z,16.93
2023-02-11T07:40:29.024Z,16.10
2023-02-11T07:42:57.342Z,17.20
2023-02-11T07:45:25.924Z,17.07
2023-02-11T07:47:54.192Z,18.57
2023-02-11T07:50:22.403Z,17.37
2023-02-11T07:52:51.973Z,16.90
2023-02-11T07:55:20.224Z,17.53
2023-02-11T07:57:48.445Z,13.60
2023-02-11T08:00:20.804Z,18.27
2023-02-11T08:02:49.389Z,18.57
2023-02-11T08:05:17.794Z,18.60
2023-02-11T08:07:45.979Z,15.73
2023-02-11T08:10:15.751Z,17.73
2023-02-11T08:12:44.024Z,17.67
2023-02-11T08:15:12.637Z,19.13
2023-02-11T08:17:40.963Z,18.33
2023-02-11T08:20:09.971Z,16.67
2023-02-11T08:22:38.248Z,16.70
2023-02-11T08:25:07.614Z,18.80
2023-02-11T08:27:37.280Z,18.80
2023-02-11T08:30:06.799Z,18.67
2023-02-11T08:32:36.061Z,18.40
2023-02-11T08:35:04.409Z,18.63
2023-02-11T08:37:33.724Z,19.60
2023-02-11T08:40:02.051Z,18.03
2023-02-11T08:42:30.415Z,17.80
2023-02-11T08:44:59.938Z,18.57
2023-02-11T08:47:28.144Z,17.50
2023-02-11T08:49:56.350Z,18.07
2023-02-11T08:52:24.699Z,17.67
2023-02-11T08:54:52.967Z,17.33
2023-02-11T08:57:21.253Z,18.53
2023-02-11T08:59:49.714Z,17.50
2023-02-11T09:02:19.412Z,17.80
2023-02-11T09:04:47.777Z,16.90
2023-02-11T09:07:15.994Z,17.83
2023-02-11T09:09:44.251Z,16.43
2023-02-11T09:12:12.573Z,16.33
2023-02-11T09:14:41.919Z,15.77
2023-02-11T09:17:10.341Z,16.20
2023-02-11T09:19:40.069Z,15.67
2023-02-11T09:22:08.426Z,14.40
2023-02-11T09:24:37.355Z,15.57
2023-02-11T09:27:06.978Z,14.77
2023-02-11T09:29:35.174Z,15.77
2023-02-11T09:32:03.595Z,16.43
2023-02-11T09:34:32.688Z,15.90
2023-02-11T09:37:02.907Z,14.20
2023-02-11T09:39:31.360Z,15.50
2023-02-11T09:42:38.635Z,14.80
2023-02-11T09:45:17.259Z,15.43
2023-02-11T09:47:54.959Z,14.03
2023-02-11T09:50:31.141Z,14.20
2023-02-11T09:53:05.048Z,12.77
2023-02-11T09:55:39.391Z,12.60
2023-02-11T09:58:14.876Z,12.67
2023-02-11T10:00:52.642Z,13.43
2023-02-11T10:03:57.411Z,12.00
2023-02-11T10:06:42.550Z,13.40
2023-02-11T10:09:30.691Z,11.77
2023-02-11T10:12:19.478Z,11.87
2023-02-11T10:15:11.940Z,11.40
2023-02-11T10:17:53.571Z,10.87
2023-02-11T10:20:32.584Z,12.40
2023-02-11T10:23:09.217Z,10.77
2023-02-11T10:25:45.495Z,7.67
2023-02-11T10:28:18.009Z,10.63
2023-02-11T10:30:58.433Z,10.13
2023-02-11T10:33:32.516Z,10.17
2023-02-11T10:36:01.104Z,9.67
2023-02-11T10:38:29.705Z,9.87
2023-02-11T10:40:59.414Z,9.93
2023-02-11T10:43:31.523Z,9.73
2023-02-11T10:46:01.358Z,10.13
2023-02-11T10:48:43.865Z,10.10
2023-02-11T10:51:22.406Z,9.17
2023-02-11T10:54:13.829Z,8.07
2023-02-11T10:56:50.001Z,9.20
2023-02-11T10:59:29.146Z,9.97
2023-02-11T11:02:01.247Z,8.83
2023-02-11T11:04:45.304Z,8.53
2023-02-11T11:07:22.426Z,9.23
2023-02-11T11:09:54.960Z,8.63
2023-02-11T11:12:32.638Z,7.33
2023-02-11T11:15:05.189Z,7.87
2023-02-11T11:17:33.595Z,8.10
2023-02-11T11:20:27.206Z,8.63
2023-02-11T11:23:16.678Z,7.90
2023-02-11T11:25:59.402Z,7.70
2023-02-11T11:28:33.834Z,7.30
2023-02-11T11:31:02.780Z,6.67
2023-02-11T11:33:35.300Z,6.73
2023-02-11T11:36:09.938Z,6.87
2023-02-11T11:38:45.903Z,6.20
2023-02-11T11:41:27.165Z,6.20
2023-02-11T11:44:18.418Z,6.67
2023-02-11T11:46:54.050Z,7.03
2023-02-11T11:49:31.311Z,6.47
2023-02-11T11:52:15.765Z,6.43
2023-02-11T11:54:48.840Z,7.33
2023-02-11T11:57:26.708Z,7.07
2023-02-11T11:59:56.968Z,5.63
2023-02-11T12:02:55.219Z,7.17
2023-02-11T12:05:28.825Z,6.63
2023-02-11T12:08:14.161Z,6.33
2023-02-11T12:11:03.808Z,7.47
2023-02-11T12:13:50.326Z,5.93
2023-02-11T12:16:37.518Z,5.03
2023-02-11T12:19:48.891Z,6.30
2023-02-11T12:22:35.716Z,6.00
2023-02-11T12:25:27.206Z,5.53
2023-02-11T12:28:19.347Z,5.70
2023-02-11T12:31:30.809Z,5.07
2023-02-11T12:34:37.247Z,5.70
2023-02-11T12:37:20.179Z,4.97
2023-02-11T12:40:02.283Z,5.07
2023-02-11T12:43:14.657Z,5.07
2023-02-11T12:46:07.036Z,4.30
2023-02-11T12:49:03.642Z,4.70
2023-02-11T12:51:58.977Z,5.13
2023-02-11T12:54:36.418Z,4.80
2023-02-11T12:57:12.539Z,5.63
2023-02-11T12:59:55.249Z,4.77
2023-02-11T13:02:40.620Z,5.67
2023-02-11T13:05:24.494Z,5.87
2023-02-11T13:07:57.996Z,5.03
2023-02-11T13:10:33.537Z,4.80
2023-02-11T13:13:20.097Z,4.57
2023-02-11T13:15:57.608Z,4.57
2023-02-11T13:18:46.019Z,5.27
2023-02-11T13:21:37.261Z,4.97
2023-02-11T13:24:27.841Z,5.83
2023-02-11T13:27:09.366Z,5.37
2023-02-11T13:30:21.409Z,5.60
2023-02-11T13:33:22.032Z,5.63
2023-02-11T13:36:17.644Z,5.17
2023-02-11T13:39:02.567Z,5.87
2023-02-11T13:41:39.424Z,6.60
2023-02-11T13:44:24.549Z,6.57
2023-02-11T13:47:01.408Z,6.57
2023-02-11T13:49:37.459Z,6.33
2023-02-11T13:52:19.914Z,6.93
2023-02-11T13:54:53.904Z,6.60
2023-02-11T13:57:36.490Z,6.67
2023-02-11T14:00:51.045Z,6.90
2023-02-11T14:03:51.229Z,6.47
2023-02-11T14:07:00.943Z,5.67
2023-02-11T14:09:41.159Z,6.53
2023-02-11T14:12:32.282Z,5.87
2023-02-11T14:15:21.578Z,6.63
2023-02-11T14:17:50.089Z,7.07
2023-02-11T14:20:42.031Z,6.67
2023-02-11T14:23:27.220Z,6.83
2023-02-11T14:26:20.032Z,6.83
2023-02-11T14:28:55.765Z,6.63
2023-02-11T14:31:29.436Z,6.90
2023-02-11T14:34:28.154Z,6.60
2023-02-11T14:37:12.778Z,6.13
2023-02-11T14:40:01.641Z,6.20
2023-02-11T14:42:32.083Z,6.60
2023-02-11T14:45:10.833Z,5.87
2023-02-11T14:47:50.534Z,5.97
2023-02-11T14:50:25.700Z,5.87
2023-02-11T14:52:56.120Z,6.53
2023-02-11T14:55:33.488Z,6.27
2023-02-11T14:58:25.590Z,6.30
2023-02-11T15:01:00.073Z,5.70
2023-02-11T15:03:41.111Z,5.47
2023-02-11T15:06:18.730Z,5.20
2023-02-11T15:08:52.468Z,5.23
2023-02-11T15:11:24.835Z,5.20
2023-02-11T15:13:55.582Z,5.80
2023-02-11T15:16:29.550Z,6.30
2023-02-11T15:19:04.045Z,5.87
2023-02-11T15:21:36.668Z,5.97
2023-02-11T15:24:21.731Z,5.03
2023-02-11T15:27:01.596Z,6.53
2023-02-11T15:29:38.100Z,5.87
2023-02-11T15:32:18.281Z,6.70
2023-02-11T15:34:48.784Z,7.40
2023-02-11T15:37:22.884Z,7.50
2023-02-11T15:39:52.636Z,7.10
2023-02-11T15:42:35.812Z,7.63
2023-02-11T15:45:23.802Z,7.80
2023-02-11T15:47:58.383Z,7.30
2023-02-11T15:50:30.752Z,7.80
2023-02-11T15:53:03.850Z,6.00
2023-02-11T15:55:32.726Z,7.93
2023-02-11T15:58:03.349Z,5.67
2023-02-11T16:00:38.454Z,5.60
2023-02-11T16:03:23.190Z,5.73
2023-02-11T16:05:52.487Z,5.33
2023-02-11T16:08:29.179Z,5.27
2023-02-11T16:11:03.141Z,5.13
2023-02-11T16:13:33.814Z,5.40
2023-02-11T16:16:05.926Z,5.50
2023-02-11T16:18:40.517Z,6.57
2023-02-11T16:21:17.381Z,6.23
2023-02-11T16:23:53.639Z,7.10
2023-02-11T16:26:31.165Z,6.87
2023-02-11T16:29:11.398Z,7.20
2023-02-11T16:31:43.922Z,7.80
2023-02-11T16:34:20.168Z,10.03
2023-02-11T16:36:49.726Z,9.47
2023-02-11T16:39:22.467Z,9.97
2023-02-11T16:41:53.423Z,10.00
2023-02-11T16:44:21.733Z,9.73
2023-02-11T16:46:50.203Z,10.23
2023-02-11T16:49:24.879Z,10.67
2023-02-11T16:51:57.817Z,10.50
2023-02-11T16:54:26.256Z,10.67
2023-02-11T16:56:54.789Z,11.90
2023-02-11T16:59:23.119Z,10.77
2023-02-11T17:01:54.108Z,10.87
2023-02-11T17:04:28.274Z,9.70
2023-02-11T17:06:58.467Z,9.43
2023-02-11T17:09:31.091Z,9.23
2023-02-11T17:12:00.150Z,7.53
2023-02-11T17:14:28.665Z,8.40
2023-02-11T17:16:58.230Z,8.87
2023-02-11T17:19:28.290Z,9.23
2023-02-11T17:21:56.657Z,8.57
2023-02-11T17:24:24.964Z,10.57
2023-02-11T17:26:54.693Z,11.47
2023-02-11T17:29:26.067Z,12.47
2023-02-11T17:31:55.245Z,12.40
2023-02-11T17:34:24.929Z,12.30
2023-02-11T17:36:54.985Z,12.60
2023-02-11T17:39:23.933Z,13.20
2023-02-11T17:41:52.323Z,12.73
2023-02-11T17:44:20.669Z,12.73
2023-02-11T17:46:48.941Z,12.70
2023-02-11T17:49:17.318Z,10.70
2023-02-11T17:51:45.859Z,12.80
2023-02-11T17:54:18.960Z,12.33
2023-02-11T17:56:50.618Z,12.63
2023-02-11T17:59:19.359Z,14.23
2023-02-11T18:01:47.940Z,13.50
2023-02-11T18:04:19.554Z,13.70
2023-02-11T18:06:48.728Z,13.80
2023-02-11T18:09:18.723Z,12.63
2023-02-11T18:11:48.467Z,13.83
2023-02-11T18:14:17.259Z,12.33
2023-02-11T18:16:46.334Z,13.63
2023-02-11T18:19:14.984Z,12.13
2023-02-11T18:21:43.486Z,12.43
2023-02-11T18:24:12.602Z,14.20
2023-02-11T18:26:42.283Z,12.17
2023-02-11T18:29:11.125Z,13.07
2023-02-11T18:31:40.755Z,12.30
2023-02-11T18:34:10.625Z,12.60
2023-02-11T18:36:39.462Z,12.77
2023-02-11T18:39:07.877Z,12.57
2023-02-11T18:41:36.123Z,12.43
2023-02-11T18:44:06.121Z,13.13
2023-02-11T18:46:35.256Z,13.40
2023-02-11T18:49:03.563Z,14.60
2023-02-11T18:51:32.420Z,13.37
2023-02-11T18:54:01.326Z,13.07
2023-02-11T18:56:29.796Z,13.90
2023-02-11T18:59:01.343Z,14.47
2023-02-11T19:01:34.206Z,12.37
2023-02-11T19:04:06.079Z,13.90
2023-02-11T19:06:37.697Z,13.90
2023-02-11T19:09:10.236Z,13.70
2023-02-11T19:11:50.403Z,13.23
2023-02-11T19:14:23.581Z,13.50
2023-02-11T19:16:56.038Z,14.47
2023-02-11T19:19:30.476Z,14.00
2023-02-11T19:22:00.663Z,15.53
2023-02-11T19:24:30.817Z,72.97
2023-02-11T19:27:02.691Z,31.90
2023-02-11T19:29:34.897Z,19.33
2023-02-11T19:32:06.725Z,18.77
2023-02-11T19:34:40.969Z,18.03
2023-02-11T19:37:10.804Z,15.03
2023-02-11T19:39:39.423Z,12.90
2023-02-11T19:42:07.848Z,14.00
2023-02-11T19:44:36.262Z,14.37
2023-02-11T19:47:06.798Z,14.30
2023-02-11T19:49:35.496Z,10.90
2023-02-11T19:52:04.294Z,14.50
2023-02-11T19:54:32.676Z,13.67
2023-02-11T19:57:00.944Z,14.10
2023-02-11T19:59:29.184Z,14.70
2023-02-11T20:01:58.065Z,14.87
2023-02-11T20:04:31.880Z,13.23
2023-02-11T20:07:00.355Z,12.97
2023-02-11T20:09:31.134Z,14.40
2023-02-11T20:12:00.882Z,13.30
2023-02-11T20:14:29.361Z,14.40
2023-02-11T20:16:59.176Z,13.27
2023-02-11T20:19:30.667Z,13.43
2023-02-11T20:21:58.979Z,14.10
2023-02-11T20:24:27.541Z,14.13
2023-02-11T20:26:56.446Z,15.07
2023-02-11T20:29:26.378Z,15.43
2023-02-11T20:31:55.178Z,14.90
2023-02-11T20:34:24.934Z,16.10
2023-02-11T20:36:54.833Z,14.97
2023-02-11T20:39:25.440Z,14.03
2023-02-11T20:41:54.535Z,15.37
2023-02-11T20:44:23.736Z,14.07
2023-02-11T20:46:53.980Z,15.57
2023-02-11T20:49:24.876Z,16.80
2023-02-11T20:51:55.508Z,14.53
2023-02-11T20:54:25.756Z,16.73
2023-02-11T20:56:55.412Z,16.70
2023-02-11T20:59:24.161Z,16.30
2023-02-11T21:01:56.613Z,17.03
2023-02-11T21:04:29.399Z,15.97
2023-02-11T21:07:01.651Z,17.67
2023-02-11T21:09:33.183Z,17.80
2023-02-11T21:12:02.385Z,16.37
2023-02-11T21:14:31.404Z,17.23
2023-02-11T21:16:59.938Z,17.23
2023-02-11T21:19:28.346Z,17.37
2023-02-11T21:22:00.642Z,18.37
2023-02-11T21:24:30.713Z,17.93
2023-02-11T21:26:59.221Z,15.90
2023-02-11T21:29:27.456Z,17.03
2023-02-11T21:31:56.019Z,16.77
2023-02-11T21:34:24.524Z,15.27
2023-02-11T21:36:53.702Z,14.57
2023-02-11T21:39:23.296Z,13.30
2023-02-11T21:41:52.088Z,13.47
2023-02-11T21:44:20.366Z,14.03
2023-02-11T21:46:48.717Z,14.30
2023-02-11T21:49:17.052Z,13.63
2023-02-11T21:51:45.312Z,14.03
2023-02-11T21:54:13.599Z,13.07
2023-02-11T21:56:43.200Z,13.97
2023-02-11T21:59:14.505Z,13.00
2023-02-11T22:01:42.753Z,13.83
2023-02-11T22:04:11.388Z,12.43
2023-02-11T22:06:40.050Z,11.97
2023-02-11T22:09:11.347Z,12.47
2023-02-11T22:11:39.621Z,11.53
2023-02-11T22:14:09.298Z,11.20
2023-02-11T22:16:37.770Z,9.93
2023-02-11T22:19:07.342Z,11.07
2023-02-11T22:21:35.558Z,11.27
2023-02-11T22:24:03.788Z,11.20
2023-02-11T22:26:32.331Z,11.53
2023-02-11T22:29:01.077Z,10.30
2023-02-11T22:31:33.089Z,10.03
2023-02-11T22:34:03.134Z,10.70
2023-02-11T22:36:34.488Z,10.77
2023-02-11T22:39:04.601Z,11.13
2023-02-11T22:41:33.325Z,11.47
2023-02-11T22:44:01.785Z,11.50
2023-02-11T22:46:31.514Z,11.80
2023-02-11T22:48:59.757Z,11.03
2023-02-11T22:51:30.771Z,10.73
2023-02-11T22:54:01.501Z,10.93
2023-02-11T22:56:31.621Z,11.93
2023-02-11T22:59:01.893Z,11.97
2023-02-11T23:01:32.589Z,11.87
2023-02-11T23:04:03.763Z,11.77
2023-02-11T23:06:32.224Z,10.87
2023-02-11T23:09:00.812Z,11.73
2023-02-11T23:11:31.778Z,11.23
2023-02-11T23:14:01.567Z,11.17
2023-02-11T23:16:35.011Z,8.80
2023-02-11T23:19:06.463Z,10.00
2023-02-11T23:21:37.951Z,9.20
2023-02-11T23:24:12.486Z,10.03
2023-02-11T23:26:42.785Z,10.23
2023-02-11T23:29:12.303Z,9.47
2023-02-11T23:31:45.890Z,9.77
2023-02-11T23:34:17.106Z,9.97
2023-02-11T23:36:45.798Z,8.07
2023-02-11T23:39:17.046Z,8.63
2023-02-11T23:41:46.438Z,7.33
2023-02-11T23:44:14.890Z,6.93
2023-02-11T23:46:44.552Z,6.53
2023-02-11T23:49:12.987Z,7.37
2023-02-11T23:51:41.309Z,7.17
2023-02-11T23:54:12.632Z,6.77
2023-02-11T23:56:42.260Z,7.57
2023-02-11T23:59:11.535Z,7.23
